createdAt,value
2022-10-14T00:01:25.908Z,101522.34
2022-10-14T00:03:54.796Z,101522.28
2022-10-14T00:06:25.082Z,101539.06
2022-10-14T00:08:52.540Z,101527.50
2022-10-14T00:11:24.419Z,101531.72
2022-10-14T00:13:59.095Z,101536.06
2022-10-14T00:16:30.860Z,101521.78
2022-10-14T00:19:00.924Z,101527.00
2022-10-14T00:21:28.967Z,101532.19
2022-10-14T00:23:56.337Z,101535.69
2022-10-14T00:26:29.235Z,101533.81
2022-10-14T00:28:57.379Z,101532.81
2022-10-14T00:31:24.867Z,101532.75
2022-10-14T00:33:52.475Z,101533.56
2022-10-14T00:36:21.718Z,101529.00
2022-10-14T00:38:49.276Z,101527.34
2022-10-14T00:41:21.457Z,101519.25
2022-10-14T00:44:14.818Z,101516.50
2022-10-14T00:46:44.516Z,101512.97
2022-10-14T00:49:25.057Z,101517.47
2022-10-14T00:52:02.535Z,101511.31
2022-10-14T00:54:34.554Z,101517.56
2022-10-14T00:57:02.400Z,101523.81
2022-10-14T00:59:30.694Z,101516.66
2022-10-14T01:01:58.204Z,101525.41
2022-10-14T01:04:27.026Z,101514.59
2022-10-14T01:07:12.372Z,101521.41
2022-10-14T01:10:05.909Z,101508.72
2022-10-14T01:13:09.036Z,101518.97
2022-10-14T01:16:07.004Z,101512.25
2022-10-14T01:18:53.437Z,101526.78
2022-10-14T01:21:37.993Z,101516.59
2022-10-14T01:24:30.038Z,101530.63
2022-10-14T01:27:25.414Z,101517.03
2022-10-14T01:30:08.136Z,101518.78
2022-10-14T01:32:44.087Z,101515.97
2022-10-14T01:35:21.825Z,101521.09
2022-10-14T01:37:54.926Z,101515.63
2022-10-14T01:40:36.876Z,101522.41
2022-10-14T01:43:05.190Z,101519.69
2022-10-14T01:45:34.687Z,101520.75
2022-10-14T01:48:04.109Z,101523.44
2022-10-14T01:50:32.170Z,101516.28
2022-10-14T01:53:04.458Z,101525.16
2022-10-14T01:55:35.696Z,101524.22
2022-10-14T01:58:04.584Z,101522.41
2022-10-14T02:00:32.033Z,101525.09
2022-10-14T02:02:59.455Z,101524.22
2022-10-14T02:05:46.023Z,101524.09
2022-10-14T02:08:20.998Z,101529.22
2022-10-14T02:11:04.771Z,101522.88
2022-10-14T02:14:05.118Z,101519.97
2022-10-14T02:16:38.907Z,101528.66
2022-10-14T02:19:24.689Z,101518.59
2022-10-14T02:21:54.674Z,101518.38
2022-10-14T02:24:27.051Z,101521.78
2022-10-14T02:26:56.180Z,101513.63
2022-10-14T02:29:24.869Z,101511.66
2022-10-14T02:31:53.218Z,101511.66
2022-10-14T02:34:22.447Z,101509.75
2022-10-14T02:36:50.479Z,101505.28
2022-10-14T02:39:30.772Z,101513.16
2022-10-14T02:41:58.444Z,101509.53
2022-10-14T02:44:25.806Z,101519.16
2022-10-14T02:46:57.925Z,101516.34
2022-10-14T02:49:25.412Z,101514.44
2022-10-14T02:51:52.828Z,101518.78
2022-10-14T02:54:20.487Z,101508.09
2022-10-14T02:56:47.784Z,101512.50
2022-10-14T02:59:15.227Z,101529.28
2022-10-14T03:01:42.645Z,101517.63
2022-10-14T03:04:10.263Z,101515.66
2022-10-14T03:06:37.891Z,101516.28
2022-10-14T03:09:05.256Z,101522.38
2022-10-14T03:11:32.803Z,101509.78
2022-10-14T03:14:00.199Z,101508.84
2022-10-14T03:16:27.676Z,101503.38
2022-10-14T03:18:55.012Z,101508.69
2022-10-14T03:21:22.360Z,101501.56
2022-10-14T03:23:50.651Z,101504.97
2022-10-14T03:26:20.867Z,101509.47
2022-10-14T03:28:48.351Z,101513.88
2022-10-14T03:31:15.701Z,101504.13
2022-10-14T03:33:44.511Z,101515.69
2022-10-14T03:36:12.296Z,101505.06
2022-10-14T03:38:39.783Z,101505.78
2022-10-14T03:41:07.321Z,101510.19
2022-10-14T03:43:34.917Z,101506.50
2022-10-14T03:46:02.153Z,101521.53
2022-10-14T03:48:29.743Z,101511.50
2022-10-14T03:50:57.285Z,101507.03
2022-10-14T03:53:24.703Z,101511.28
2022-10-14T03:55:52.059Z,101510.25
2022-10-14T03:58:22.384Z,101515.59
2022-10-14T04:00:51.841Z,101511.03
2022-10-14T04:03:19.453Z,101516.22
2022-10-14T04:05:47.603Z,101518.84
2022-10-14T04:08:15.910Z,101511.59
2022-10-14T04:10:45.770Z,101520.44
2022-10-14T04:13:13.132Z,101519.47
2022-10-14T04:15:44.369Z,101519.34
2022-10-14T04:18:11.935Z,101523.59
2022-10-14T04:20:41.647Z,101514.44
2022-10-14T04:23:09.715Z,101515.13
2022-10-14T04:25:40.247Z,101516.03
2022-10-14T04:28:08.018Z,101516.72
2022-10-14T04:30:35.714Z,101516.72
2022-10-14T04:33:03.734Z,101520.19
2022-10-14T04:35:31.707Z,101512.88
2022-10-14T04:38:01.718Z,101516.25
2022-10-14T04:40:30.819Z,101522.38
2022-10-14T04:43:01.141Z,101526.78
2022-10-14T04:45:28.814Z,101524.22
2022-10-14T04:47:56.168Z,101527.59
2022-10-14T04:50:23.613Z,101522.09
2022-10-14T04:52:50.968Z,101529.19
2022-10-14T04:55:18.235Z,101531.78
2022-10-14T04:57:45.576Z,101530.75
2022-10-14T05:00:13.448Z,101537.75
2022-10-14T05:02:42.236Z,101531.22
2022-10-14T05:05:09.784Z,101535.38
2022-10-14T05:07:38.298Z,101534.44
2022-10-14T05:10:06.278Z,101531.50
2022-10-14T05:12:33.864Z,101535.94
2022-10-14T05:15:01.194Z,101528.50
2022-10-14T05:17:28.502Z,101527.44
2022-10-14T05:19:55.836Z,101527.91
2022-10-14T05:22:26.138Z,101533.81
2022-10-14T05:24:53.625Z,101531.66
2022-10-14T05:27:21.923Z,101532.91
2022-10-14T05:29:49.554Z,101535.06
2022-10-14T05:32:17.220Z,101540.13
2022-10-14T05:34:47.550Z,101538.09
2022-10-14T05:37:14.970Z,101543.22
2022-10-14T05:39:42.278Z,101542.09
2022-10-14T05:42:10.632Z,101544.72
2022-10-14T05:44:37.976Z,101544.47
2022-10-14T05:47:10.216Z,101554.09
2022-10-14T05:49:40.632Z,101545.75
2022-10-14T05:52:07.966Z,101547.16
2022-10-14T05:54:38.364Z,101554.16
2022-10-14T05:57:14.790Z,101558.50
2022-10-14T05:59:43.365Z,101552.75
2022-10-14T06:02:10.535Z,101550.47
2022-10-14T06:04:41.077Z,101549.06
2022-10-14T06:07:10.371Z,101552.34
2022-10-14T06:09:51.554Z,101549.50
2022-10-14T06:12:19.133Z,101550.78
2022-10-14T06:14:46.696Z,101551.25
2022-10-14T06:17:19.103Z,101550.13
2022-10-14T06:19:49.408Z,101553.13
2022-10-14T06:22:16.633Z,101553.47
2022-10-14T06:24:44.298Z,101552.41
2022-10-14T06:27:11.972Z,101548.22
2022-10-14T06:29:39.397Z,101548.69
2022-10-14T06:32:08.753Z,101546.50
2022-10-14T06:34:36.165Z,101550.28
2022-10-14T06:37:04.029Z,101553.53
2022-10-14T06:39:31.332Z,101551.41
2022-10-14T06:41:58.631Z,101555.47
2022-10-14T06:44:25.932Z,101552.69
2022-10-14T06:47:02.164Z,101549.22
2022-10-14T06:49:31.610Z,101548.63
2022-10-14T06:51:58.811Z,101553.16
2022-10-14T06:54:38.166Z,101546.72
2022-10-14T06:57:06.495Z,101548.53
2022-10-14T06:59:39.094Z,101549.50
2022-10-14T07:02:06.861Z,101554.59
2022-10-14T07:04:34.408Z,101551.59
2022-10-14T07:07:04.855Z,101542.81
2022-10-14T07:09:32.429Z,101551.28
2022-10-14T07:12:01.572Z,101548.81
2022-10-14T07:14:31.865Z,101551.41
2022-10-14T07:17:01.703Z,101556.66
2022-10-14T07:19:32.159Z,101550.28
2022-10-14T07:21:59.972Z,101560.03
2022-10-14T07:24:27.400Z,101552.59
2022-10-14T07:26:57.083Z,101558.97
2022-10-14T07:29:24.638Z,101559.59
2022-10-14T07:31:51.938Z,101560.84
2022-10-14T07:34:19.499Z,101563.97
2022-10-14T07:36:46.929Z,101556.06
2022-10-14T07:39:52.028Z,101560.72
2022-10-14T07:44:47.830Z,101554.94
2022-10-14T07:47:15.400Z,101566.38
2022-10-14T07:49:42.845Z,101556.78
2022-10-14T07:52:12.213Z,101554.94
2022-10-14T07:54:39.511Z,101558.66
2022-10-14T07:57:10.093Z,101561.41
2022-10-14T07:59:39.481Z,101561.31
2022-10-14T08:02:07.025Z,101556.78
2022-10-14T08:04:36.947Z,101565.34
2022-10-14T08:07:04.795Z,101561.56
2022-10-14T08:09:36.609Z,101566.94
2022-10-14T08:12:05.307Z,101562.88
2022-10-14T08:14:32.726Z,101556.31
2022-10-14T08:17:00.040Z,101557.06
2022-10-14T08:19:27.432Z,101557.91
2022-10-14T08:21:55.060Z,101555.03
2022-10-14T08:24:22.348Z,101559.56
2022-10-14T08:26:54.598Z,101555.88
2022-10-14T08:29:24.966Z,101559.13
2022-10-14T08:31:54.273Z,101559.59
2022-10-14T08:34:22.111Z,101558.28
2022-10-14T08:36:52.173Z,101553.56
2022-10-14T08:39:21.763Z,101553.75
2022-10-14T08:42:13.366Z,101554.47
2022-10-14T08:45:29.436Z,101548.78
2022-10-14T08:48:00.091Z,101553.19
2022-10-14T08:50:47.890Z,101552.00
2022-10-14T08:53:20.120Z,101547.44
2022-10-14T08:55:51.692Z,101549.34
2022-10-14T08:58:21.941Z,101550.63
2022-10-14T09:00:51.673Z,101547.53
2022-10-14T09:03:25.206Z,101544.91
2022-10-14T09:06:07.779Z,101538.44
2022-10-14T09:08:42.930Z,101544.78
2022-10-14T09:11:33.611Z,101541.34
2022-10-14T09:14:06.070Z,101545.56
2022-10-14T09:16:36.723Z,101543.06
2022-10-14T09:19:22.033Z,101546.25
2022-10-14T09:21:57.189Z,101536.78
2022-10-14T09:24:39.402Z,101544.34
2022-10-14T09:27:30.905Z,101542.50
2022-10-14T09:30:04.898Z,101539.16
2022-10-14T09:32:53.454Z,101541.41
2022-10-14T09:35:34.446Z,101537.88
2022-10-14T09:38:02.006Z,101539.03
2022-10-14T09:40:33.673Z,101533.78
2022-10-14T09:43:10.202Z,101536.50
2022-10-14T09:46:08.066Z,101537.41
2022-10-14T09:48:49.695Z,101537.53
2022-10-14T09:51:24.953Z,101535.69
2022-10-14T09:54:02.067Z,101531.31
2022-10-14T09:56:41.691Z,101524.19
2022-10-14T09:59:24.682Z,101530.06
2022-10-14T10:01:58.213Z,101530.63
2022-10-14T10:04:31.351Z,101526.50
2022-10-14T10:07:00.842Z,101524.25
2022-10-14T10:09:31.782Z,101531.19
2022-10-14T10:11:59.400Z,101525.13
2022-10-14T10:14:33.803Z,101525.47
2022-10-14T10:17:08.519Z,101525.56
2022-10-14T10:19:49.390Z,101515.44
2022-10-14T10:25:06.592Z,101517.72
2022-10-14T10:27:53.058Z,101511.47
2022-10-14T10:30:32.518Z,101511.47
2022-10-14T10:33:36.612Z,101519.00
2022-10-14T10:36:34.190Z,101516.00
2022-10-14T10:39:38.849Z,101520.84
2022-10-14T10:42:25.481Z,101512.09
2022-10-14T10:45:35.536Z,101514.91
2022-10-14T10:49:00.381Z,101514.78
2022-10-14T10:52:08.954Z,101514.78
2022-10-14T10:54:40.368Z,101515.72
2022-10-14T10:57:40.072Z,101502.47
2022-10-14T11:00:13.204Z,101506.81
2022-10-14T11:02:48.481Z,101506.22
2022-10-14T11:05:37.534Z,101498.78
2022-10-14T11:08:41.942Z,101506.06
2022-10-14T11:11:46.075Z,101501.22
2022-10-14T11:14:41.051Z,101500.38
2022-10-14T11:17:22.986Z,101492.25
2022-10-14T11:20:00.736Z,101493.91
2022-10-14T11:22:50.925Z,101486.66
2022-10-14T11:25:20.154Z,101488.03
2022-10-14T11:28:10.546Z,101487.91
2022-10-14T11:30:50.297Z,101487.41
2022-10-14T11:33:29.669Z,101488.19
2022-10-14T11:36:02.793Z,101483.72
2022-10-14T11:38:46.687Z,101483.59
2022-10-14T11:41:46.077Z,101483.50
2022-10-14T11:44:27.358Z,101475.47
2022-10-14T11:46:58.564Z,101479.31
2022-10-14T11:49:32.058Z,101477.59
2022-10-14T11:52:04.160Z,101473.50
2022-10-14T11:54:45.277Z,101476.44
2022-10-14T11:57:17.893Z,101480.38
2022-10-14T12:00:06.782Z,101480.13
2022-10-14T12:02:40.967Z,101481.63
2022-10-14T12:05:17.404Z,101481.50
2022-10-14T12:08:27.617Z,101481.63
2022-10-14T12:11:02.041Z,101472.03
2022-10-14T12:13:47.621Z,101465.38
2022-10-14T12:16:17.680Z,101468.56
2022-10-14T12:18:47.576Z,101459.16
2022-10-14T12:21:24.680Z,101459.88
2022-10-14T12:24:08.896Z,101460.69
2022-10-14T12:26:56.783Z,101456.84
2022-10-14T12:29:55.689Z,101453.88
2022-10-14T12:33:06.877Z,101456.19
2022-10-14T12:36:05.275Z,101458.88
2022-10-14T12:38:35.866Z,101456.75
2022-10-14T12:41:59.909Z,101450.59
2022-10-14T12:44:58.050Z,101457.66
2022-10-14T12:47:33.197Z,101456.38
2022-10-14T12:50:38.704Z,101446.31
2022-10-14T12:53:28.154Z,101446.22
2022-10-14T12:56:03.183Z,101444.16
2022-10-14T12:59:04.043Z,101450.47
2022-10-14T13:01:51.566Z,101454.78
2022-10-14T13:04:21.505Z,101451.09
2022-10-14T13:07:38.924Z,101450.97
2022-10-14T13:10:44.926Z,101449.09
2022-10-14T13:13:38.489Z,101456.81
2022-10-14T13:16:21.011Z,101457.91
2022-10-14T13:18:50.558Z,101460.88
2022-10-14T13:21:41.771Z,101456.78
2022-10-14T13:24:26.450Z,101450.75
2022-10-14T13:26:53.848Z,101458.13
2022-10-14T13:29:21.104Z,101457.41
2022-10-14T13:32:18.771Z,101456.66
2022-10-14T13:35:06.655Z,101466.03
2022-10-14T13:37:39.779Z,101455.06
2022-10-14T13:40:19.670Z,101463.31
2022-10-14T13:42:53.743Z,101463.44
2022-10-14T13:45:41.163Z,101464.03
2022-10-14T13:48:32.440Z,101459.31
2022-10-14T13:51:31.430Z,101458.91
2022-10-14T13:54:35.260Z,101453.22
2022-10-14T13:57:53.740Z,101457.34
2022-10-14T14:02:56.620Z,101471.47
2022-10-14T14:05:26.915Z,101457.84
2022-10-14T14:11:14.392Z,101471.47
2022-10-14T14:13:53.257Z,101463.06
2022-10-14T14:16:26.428Z,101467.09
2022-10-14T14:19:07.847Z,101468.06
2022-10-14T14:21:36.643Z,101461.03
2022-10-14T14:24:22.816Z,101464.00
2022-10-14T14:26:53.136Z,101456.31
2022-10-14T14:29:23.082Z,101462.09
2022-10-14T14:32:06.062Z,101459.84
2022-10-14T14:34:38.142Z,101459.28
2022-10-14T14:37:25.168Z,101461.34
2022-10-14T14:40:15.526Z,101459.97
2022-10-14T14:42:44.285Z,101460.31
2022-10-14T14:45:32.535Z,101464.34
2022-10-14T14:48:05.544Z,101465.53
2022-10-14T14:50:36.228Z,101465.97
2022-10-14T14:53:09.665Z,101471.63
2022-10-14T14:55:47.026Z,101471.06
2022-10-14T14:58:27.568Z,101469.47
2022-10-14T15:00:55.384Z,101465.34
2022-10-14T15:03:28.435Z,101471.06
2022-10-14T15:06:04.613Z,101465.91
2022-10-14T15:08:36.774Z,101457.34
2022-10-14T15:11:05.146Z,101471.06
2022-10-14T15:13:47.251Z,101466.84
2022-10-14T15:16:37.550Z,101465.44
2022-10-14T15:19:23.611Z,101474.63
2022-10-14T15:22:30.240Z,101469.53
2022-10-14T15:25:18.100Z,101478.16
2022-10-14T15:27:51.443Z,101477.56
2022-10-14T15:30:31.534Z,101481.53
2022-10-14T15:33:01.785Z,101478.28
2022-10-14T15:35:29.852Z,101478.81
2022-10-14T15:37:57.138Z,101484.44
2022-10-14T15:40:30.292Z,101485.63
2022-10-14T15:42:57.752Z,101491.22
2022-10-14T15:45:26.385Z,101484.41
2022-10-14T15:48:00.271Z,101488.06
2022-10-14T15:50:28.784Z,101488.16
2022-10-14T15:52:57.144Z,101484.59
2022-10-14T15:55:27.240Z,101491.84
2022-10-14T15:57:54.535Z,101490.00
2022-10-14T16:00:23.973Z,101496.25
2022-10-14T16:02:58.345Z,101498.66
2022-10-14T16:05:28.940Z,101499.50
2022-10-14T16:07:57.819Z,101494.41
2022-10-14T16:10:29.302Z,101492.03
2022-10-14T16:13:00.272Z,101506.81
2022-10-14T16:15:46.357Z,101501.81
2022-10-14T16:18:14.515Z,101503.75
2022-10-14T16:20:42.152Z,101502.00
2022-10-14T16:23:17.610Z,101504.94
2022-10-14T16:25:51.934Z,101506.78
2022-10-14T16:28:21.790Z,101504.28
2022-10-14T16:30:49.432Z,101506.19
2022-10-14T16:33:22.020Z,101505.44
2022-10-14T16:35:51.705Z,101512.66
2022-10-14T16:38:19.476Z,101516.22
2022-10-14T16:40:54.878Z,101513.66
2022-10-14T16:43:22.557Z,101518.16
2022-10-14T16:45:49.768Z,101514.50
2022-10-14T16:48:19.738Z,101514.59
2022-10-14T16:50:51.180Z,101521.81
2022-10-14T16:53:37.512Z,101512.88
2022-10-14T16:56:25.422Z,101515.66
2022-10-14T16:58:58.988Z,101519.41
2022-10-14T17:01:27.020Z,101512.88
2022-10-14T17:03:57.706Z,101515.25
2022-10-14T17:06:25.940Z,101513.22
2022-10-14T17:08:53.692Z,101507.94
2022-10-14T17:11:28.426Z,101512.06
2022-10-14T17:13:56.566Z,101519.16
2022-10-14T17:16:28.529Z,101518.41
2022-10-14T17:18:57.083Z,101516.41
2022-10-14T17:21:26.690Z,101517.78
2022-10-14T17:23:58.464Z,101518.19
2022-10-14T17:26:25.749Z,101510.53
2022-10-14T17:28:53.653Z,101508.03
2022-10-14T17:31:22.976Z,101512.63
2022-10-14T17:33:50.943Z,101520.94
2022-10-14T17:36:30.854Z,101521.31
2022-10-14T17:39:01.841Z,101524.28
2022-10-14T17:41:30.270Z,101525.31
2022-10-14T17:44:00.473Z,101519.19
2022-10-14T17:46:29.509Z,101522.84
2022-10-14T17:49:01.017Z,101529.28
2022-10-14T17:51:28.672Z,101532.28
2022-10-14T17:53:58.487Z,101530.75
2022-10-14T17:56:27.523Z,101527.38
2022-10-14T17:58:55.821Z,101533.63
2022-10-14T18:04:26.111Z,101530.28
2022-10-14T18:06:55.706Z,101536.63
2022-10-14T18:09:22.982Z,101528.81
2022-10-14T18:12:08.061Z,101539.91
2022-10-14T18:14:43.296Z,101533.81
2022-10-14T18:17:14.178Z,101532.22
2022-10-14T18:19:41.665Z,101532.28
2022-10-14T18:22:11.113Z,101535.84
2022-10-14T18:24:39.373Z,101534.91
2022-10-14T18:27:06.951Z,101543.91
2022-10-14T18:29:35.740Z,101536.06
2022-10-14T18:32:04.483Z,101536.06
2022-10-14T18:34:32.302Z,101538.34
2022-10-14T18:36:59.928Z,101540.19
2022-10-14T18:39:27.230Z,101539.50
2022-10-14T18:41:54.632Z,101547.69
2022-10-14T18:44:22.325Z,101539.69
2022-10-14T18:46:53.083Z,101556.91
2022-10-14T18:49:21.698Z,101546.31
2022-10-14T18:51:51.935Z,101551.88
2022-10-14T18:54:21.785Z,101556.34
2022-10-14T18:56:49.286Z,101548.34
2022-10-14T18:59:19.519Z,101556.81
2022-10-14T19:01:50.553Z,101557.84
2022-10-14T19:04:17.790Z,101558.72
2022-10-14T19:06:48.745Z,101558.72
2022-10-14T19:09:21.465Z,101573.94
2022-10-14T19:11:52.606Z,101562.75
2022-10-14T19:14:22.108Z,101561.72
2022-10-14T19:16:52.471Z,101567.19
2022-10-14T19:19:20.244Z,101560.94
2022-10-14T19:21:54.431Z,101558.53
2022-10-14T19:24:22.107Z,101570.34
2022-10-14T19:26:54.172Z,101565.06
2022-10-14T19:29:21.494Z,101561.69
2022-10-14T19:31:50.235Z,101566.31
2022-10-14T19:34:17.564Z,101564.75
2022-10-14T19:36:45.632Z,101569.28
2022-10-14T19:39:15.282Z,101572.16
2022-10-14T19:41:45.510Z,101572.44
2022-10-14T19:47:00.371Z,101571.44
2022-10-14T19:49:28.722Z,101575.34
2022-10-14T19:51:55.982Z,101583.78
2022-10-14T19:54:23.282Z,101576.97
2022-10-14T19:56:51.163Z,101568.19
2022-10-14T19:59:18.434Z,101578.25
2022-10-14T20:01:46.759Z,101569.50
2022-10-14T20:04:14.108Z,101571.31
2022-10-14T20:06:42.940Z,101583.03
2022-10-14T20:09:12.270Z,101587.81
2022-10-14T20:11:40.995Z,101587.31
2022-10-14T20:14:09.610Z,101586.78
2022-10-14T20:16:37.788Z,101590.88
2022-10-14T20:19:06.227Z,101581.34
2022-10-14T20:21:33.416Z,101587.97
2022-10-14T20:24:01.062Z,101589.28
2022-10-14T20:26:28.528Z,101577.41
2022-10-14T20:28:56.344Z,101594.09
2022-10-14T20:31:25.463Z,101594.78
2022-10-14T20:33:55.173Z,101596.09
2022-10-14T20:36:23.795Z,101594.75
2022-10-14T20:38:51.440Z,101603.84
2022-10-14T20:41:19.795Z,101595.78
2022-10-14T20:43:47.523Z,101600.44
2022-10-14T20:46:17.366Z,101600.34
2022-10-14T20:48:44.632Z,101600.44
2022-10-14T20:51:20.418Z,101599.47
2022-10-14T20:53:48.027Z,101606.63
2022-10-14T20:56:15.667Z,101604.78
2022-10-14T20:58:43.362Z,101605.91
2022-10-14T21:01:13.413Z,101597.31
2022-10-14T21:03:44.731Z,101603.72
2022-10-14T21:06:19.828Z,101598.56
2022-10-14T21:08:49.675Z,101607.81
2022-10-14T21:11:19.698Z,101601.97
2022-10-14T21:13:48.990Z,101609.66
2022-10-14T21:16:20.668Z,101606.75
2022-10-14T21:18:53.599Z,101610.81
2022-10-14T21:21:29.807Z,101610.34
2022-10-14T21:23:58.615Z,101604.34
2022-10-14T21:26:26.531Z,101602.69
2022-10-14T21:28:54.223Z,101602.34
2022-10-14T21:31:24.768Z,101606.50
2022-10-14T21:33:59.904Z,101608.91
2022-10-14T21:36:30.208Z,101607.66
2022-10-14T21:38:57.570Z,101600.88
2022-10-14T21:41:24.938Z,101608.41
2022-10-14T21:43:53.020Z,101608.91
2022-10-14T21:46:23.331Z,101615.44
2022-10-14T21:48:55.800Z,101612.31
2022-10-14T21:51:25.000Z,101619.03
2022-10-14T21:53:54.613Z,101627.34
2022-10-14T21:56:22.281Z,101614.53
2022-10-14T21:58:53.138Z,101622.81
2022-10-14T22:01:22.997Z,101617.09
2022-10-14T22:03:57.923Z,101620.03
2022-10-14T22:06:30.196Z,101622.25
2022-10-14T22:09:01.188Z,101625.44
2022-10-14T22:11:33.539Z,101622.31
2022-10-14T22:14:05.817Z,101634.06
2022-10-14T22:16:34.195Z,101628.97
2022-10-14T22:19:04.276Z,101634.47
2022-10-14T22:21:34.634Z,101626.59
2022-10-14T22:24:02.504Z,101625.75
2022-10-14T22:26:30.883Z,101620.75
2022-10-14T22:29:17.756Z,101625.38
2022-10-14T22:31:46.063Z,101627.66
2022-10-14T22:34:16.255Z,101629.69
2022-10-14T22:36:45.473Z,101622.84
2022-10-14T22:39:16.594Z,101637.81
2022-10-14T22:41:43.958Z,101637.13
2022-10-14T22:44:11.342Z,101633.72
2022-10-14T22:46:39.810Z,101629.56
2022-10-14T22:49:09.309Z,101636.75
2022-10-14T22:51:42.075Z,101630.75
2022-10-14T22:54:11.004Z,101633.47
2022-10-14T22:56:41.120Z,101632.53
2022-10-14T22:59:10.330Z,101631.59
2022-10-14T23:01:41.653Z,101629.13
2022-10-14T23:04:10.272Z,101633.78
2022-10-14T23:06:40.487Z,101632.28
2022-10-14T23:09:07.850Z,101624.50
2022-10-14T23:11:35.308Z,101630.13
2022-10-14T23:14:06.983Z,101640.13
2022-10-14T23:17:30.118Z,101625.16
2022-10-14T23:20:18.356Z,101633.63
2022-10-14T23:22:46.096Z,101634.72
2022-10-14T23:25:13.987Z,101636.72
2022-10-14T23:27:42.016Z,101635.19
2022-10-14T23:30:10.107Z,101629.84
2022-10-14T23:32:37.963Z,101632.63
2022-10-14T23:35:06.965Z,101636.22
2022-10-14T23:37:35.290Z,101638.13
2022-10-14T23:40:04.885Z,101633.06
2022-10-14T23:42:32.336Z,101633.41
2022-10-14T23:44:59.884Z,101632.69
2022-10-14T23:47:27.983Z,101633.78
2022-10-14T23:49:58.514Z,101624.06
2022-10-14T23:52:26.646Z,101629.50
2022-10-14T23:57:24.524Z,101625.09
2022-10-14T23:59:52.128Z,101622.56
